sensor_id;sensor_type;location;lat;lon;timestamp;pressure;altitude;pressure_sealevel;temperature;humidity
17649;BME280;8943;51.110;-4.158;2023-11-21T00:16:49;101460.34;;;15.83;56.60
17649;BME280;8943;51.110;-4.158;2023-11-21T00:19:19;101453.59;;;15.88;56.66
17649;BME280;8943;51.110;-4.158;2023-11-21T00:21:49;101474.97;;;15.90;57.22
17649;BME280;8943;51.110;-4.158;2023-11-21T00:25:07;101455.91;;;15.93;56.76
17649;BME280;8943;51.110;-4.158;2023-11-21T00:27:46;101450.78;;;15.90;57.03
17649;BME280;8943;51.110;-4.158;2023-11-21T00:30:25;101457.34;;;15.97;57.05
17649;BME280;8943;51.110;-4.158;2023-11-21T00:32:56;101453.84;;;15.85;57.35
17649;BME280;8943;51.110;-4.158;2023-11-21T00:44:13;101453.13;;;15.40;59.40
17649;BME280;8943;51.110;-4.158;2023-11-21T00:49:22;101465.84;;;15.38;59.78
17649;BME280;8943;51.110;-4.158;2023-11-21T00:51:55;101465.84;;;15.38;60.06
17649;BME280;8943;51.110;-4.158;2023-11-21T00:58:26;101474.75;;;15.38;60.51
17649;BME280;8943;51.110;-4.158;2023-11-21T01:22:05;101493.13;;;15.77;60.87
17649;BME280;8943;51.110;-4.158;2023-11-21T01:24:34;101500.91;;;15.80;60.83
17649;BME280;8943;51.110;-4.158;2023-11-21T01:31:32;101510.41;;;15.84;61.14
17649;BME280;8943;51.110;-4.158;2023-11-21T01:34:01;101507.97;;;15.92;60.97
17649;BME280;8943;51.110;-4.158;2023-11-21T01:36:31;101511.81;;;15.99;61.02
17649;BME280;8943;51.110;-4.158;2023-11-21T01:42:53;101502.75;;;16.11;60.41
17649;BME280;8943;51.110;-4.158;2023-11-21T01:54:32;101512.13;;;16.17;59.50
17649;BME280;8943;51.110;-4.158;2023-11-21T02:22:22;101538.53;;;16.12;58.10
17649;BME280;8943;51.110;-4.158;2023-11-21T02:25:05;101543.78;;;16.13;57.32
17649;BME280;8943;51.110;-4.158;2023-11-21T02:43:40;101580.25;;;16.06;56.54
17649;BME280;8943;51.110;-4.158;2023-11-21T02:52:55;101597.09;;;16.08;55.91
17649;BME280;8943;51.110;-4.158;2023-11-21T03:02:57;101626.31;;;16.02;55.74
17649;BME280;8943;51.110;-4.158;2023-11-21T03:14:43;101636.13;;;15.91;55.37
17649;BME280;8943;51.110;-4.158;2023-11-21T03:17:51;101632.16;;;15.95;55.29
17649;BME280;8943;51.110;-4.158;2023-11-21T03:36:10;101668.97;;;15.84;55.52
17649;BME280;8943;51.110;-4.158;2023-11-21T03:39:02;101669.69;;;15.86;55.45
17649;BME280;8943;51.110;-4.158;2023-11-21T03:42:01;101669.97;;;15.83;55.28
17649;BME280;8943;51.110;-4.158;2023-11-21T03:44:30;101677.03;;;15.84;55.41
17649;BME280;8943;51.110;-4.158;2023-11-21T03:47:06;101679.72;;;15.84;55.23
17649;BME280;8943;51.110;-4.158;2023-11-21T03:50:11;101677.03;;;15.84;55.09
17649;BME280;8943;51.110;-4.158;2023-11-21T03:53:11;101681.69;;;15.82;55.14
17649;BME280;8943;51.110;-4.158;2023-11-21T03:56:05;101689.13;;;15.78;55.02
17649;BME280;8943;51.110;-4.158;2023-11-21T03:58:55;101691.81;;;15.78;55.12
17649;BME280;8943;51.110;-4.158;2023-11-21T04:08:14;101691.31;;;15.62;55.47
17649;BME280;8943;51.110;-4.158;2023-11-21T04:10:58;101712.56;;;15.65;55.53
17649;BME280;8943;51.110;-4.158;2023-11-21T04:14:02;101710.66;;;15.67;55.30
17649;BME280;8943;51.110;-4.158;2023-11-21T04:16:31;101715.25;;;15.65;55.31
17649;BME280;8943;51.110;-4.158;2023-11-21T04:19:02;101724.66;;;15.70;55.48
17649;BME280;8943;51.110;-4.158;2023-11-21T04:21:37;101720.16;;;15.71;55.38
17649;BME280;8943;51.110;-4.158;2023-11-21T04:24:12;101726.50;;;15.70;55.42
17649;BME280;8943;51.110;-4.158;2023-11-21T04:26:41;101732.63;;;15.72;55.34
17649;BME280;8943;51.110;-4.158;2023-11-21T04:29:10;101740.78;;;15.70;55.56
17649;BME280;8943;51.110;-4.158;2023-11-21T04:31:38;101745.56;;;15.67;55.57
17649;BME280;8943;51.110;-4.158;2023-11-21T04:34:08;101754.34;;;15.69;55.53
17649;BME280;8943;51.110;-4.158;2023-11-21T04:36:37;101748.84;;;15.70;55.66
17649;BME280;8943;51.110;-4.158;2023-11-21T04:39:08;101761.44;;;15.70;55.56
17649;BME280;8943;51.110;-4.158;2023-11-21T04:41:37;101769.13;;;15.75;55.60
17649;BME280;8943;51.110;-4.158;2023-11-21T04:44:07;101771.09;;;15.73;55.59
17649;BME280;8943;51.110;-4.158;2023-11-21T04:46:36;101782.34;;;15.78;55.79
17649;BME280;8943;51.110;-4.158;2023-11-21T04:49:04;101781.34;;;15.79;55.14
17649;BME280;8943;51.110;-4.158;2023-11-21T04:51:33;101780.63;;;15.77;55.52
17649;BME280;8943;51.110;-4.158;2023-11-21T04:58:22;101785.13;;;15.65;55.55
17649;BME280;8943;51.110;-4.158;2023-11-21T05:00:51;101784.88;;;15.68;55.36
17649;BME280;8943;51.110;-4.158;2023-11-21T05:03:19;101788.94;;;15.74;55.39
17649;BME280;8943;51.110;-4.158;2023-11-21T05:05:48;101791.63;;;15.74;55.04
17649;BME280;8943;51.110;-4.158;2023-11-21T05:08:21;101803.09;;;15.76;54.89
17649;BME280;8943;51.110;-4.158;2023-11-21T05:13:36;101811.41;;;15.73;54.96
17649;BME280;8943;51.110;-4.158;2023-11-21T05:16:08;101812.38;;;15.72;55.25
17649;BME280;8943;51.110;-4.158;2023-11-21T05:18:37;101816.03;;;15.70;54.89
17649;BME280;8943;51.110;-4.158;2023-11-21T05:21:19;101816.16;;;15.69;55.01
17649;BME280;8943;51.110;-4.158;2023-11-21T05:23:48;101818.84;;;15.69;54.99
17649;BME280;8943;51.110;-4.158;2023-11-21T05:26:16;101814.44;;;15.68;54.96
17649;BME280;8943;51.110;-4.158;2023-11-21T05:29:08;101821.88;;;15.64;54.77
17649;BME280;8943;51.110;-4.158;2023-11-21T05:31:45;101826.50;;;15.62;54.78
17649;BME280;8943;51.110;-4.158;2023-11-21T05:37:11;101836.97;;;15.54;55.00
17649;BME280;8943;51.110;-4.158;2023-11-21T05:39:40;101831.81;;;15.51;55.24
17649;BME280;8943;51.110;-4.158;2023-11-21T05:42:12;101830.13;;;15.50;54.85
17649;BME280;8943;51.110;-4.158;2023-11-21T06:00:42;101882.81;;;15.40;54.79
17649;BME280;8943;51.110;-4.158;2023-11-21T06:03:15;101875.75;;;15.39;54.74
17649;BME280;8943;51.110;-4.158;2023-11-21T06:09:09;101874.97;;;15.37;54.93
17649;BME280;8943;51.110;-4.158;2023-11-21T06:12:40;101869.09;;;15.32;54.42
17649;BME280;8943;51.110;-4.158;2023-11-21T06:15:12;101869.00;;;15.33;54.37
17649;BME280;8943;51.110;-4.158;2023-11-21T06:37:15;101854.03;;;14.94;54.47
17649;BME280;8943;51.110;-4.158;2023-11-21T06:43:29;101864.88;;;14.92;54.12
17649;BME280;8943;51.110;-4.158;2023-11-21T06:46:40;101880.25;;;14.90;54.15
17649;BME280;8943;51.110;-4.158;2023-11-21T06:49:14;101897.31;;;14.89;53.96
17649;BME280;8943;51.110;-4.158;2023-11-21T06:51:43;101902.56;;;14.91;53.81
17649;BME280;8943;51.110;-4.158;2023-11-21T06:57:26;101912.00;;;14.97;53.91
17649;BME280;8943;51.110;-4.158;2023-11-21T06:59:56;101902.88;;;14.99;53.85
17649;BME280;8943;51.110;-4.158;2023-11-21T07:02:25;101899.22;;;15.00;53.63
17649;BME280;8943;51.110;-4.158;2023-11-21T07:05:45;101885.78;;;15.00;53.59
17649;BME280;8943;51.110;-4.158;2023-11-21T07:24:43;101918.69;;;14.78;53.02
17649;BME280;8943;51.110;-4.158;2023-11-21T07:27:37;101918.47;;;14.81;52.66
17649;BME280;8943;51.110;-4.158;2023-11-21T07:33:04;101929.22;;;14.81;52.20
17649;BME280;8943;51.110;-4.158;2023-11-21T07:38:45;101934.69;;;14.80;52.22
17649;BME280;8943;51.110;-4.158;2023-11-21T07:45:31;101946.72;;;14.74;52.24
17649;BME280;8943;51.110;-4.158;2023-11-21T07:48:04;101961.22;;;14.72;52.60
17649;BME280;8943;51.110;-4.158;2023-11-21T07:50:54;101983.41;;;14.74;52.44
17649;BME280;8943;51.110;-4.158;2023-11-21T07:53:23;101983.09;;;14.78;52.29
17649;BME280;8943;51.110;-4.158;2023-11-21T07:56:19;101998.25;;;14.79;52.23
17649;BME280;8943;51.110;-4.158;2023-11-21T07:58:48;102008.00;;;14.80;52.38
17649;BME280;8943;51.110;-4.158;2023-11-21T08:01:21;102012.72;;;14.77;52.71
17649;BME280;8943;51.110;-4.158;2023-11-21T08:03:50;102016.06;;;14.80;52.52
17649;BME280;8943;51.110;-4.158;2023-11-21T08:06:23;102021.31;;;14.82;52.41
17649;BME280;8943;51.110;-4.158;2023-11-21T08:08:52;102023.00;;;14.83;52.44
17649;BME280;8943;51.110;-4.158;2023-11-21T08:11:21;102024.97;;;14.81;52.49
17649;BME280;8943;51.110;-4.158;2023-11-21T08:13:51;102022.47;;;14.78;52.44
17649;BME280;8943;51.110;-4.158;2023-11-21T08:16:22;102030.53;;;14.78;52.34
17649;BME280;8943;51.110;-4.158;2023-11-21T08:19:05;102028.09;;;14.75;52.34
17649;BME280;8943;51.110;-4.158;2023-11-21T08:21:41;102032.69;;;14.73;52.46
17649;BME280;8943;51.110;-4.158;2023-11-21T08:24:47;102037.31;;;14.71;52.15
17649;BME280;8943;51.110;-4.158;2023-11-21T08:27:15;102049.88;;;14.70;52.43
17649;BME280;8943;51.110;-4.158;2023-11-21T08:29:56;102058.53;;;14.74;52.37
17649;BME280;8943;51.110;-4.158;2023-11-21T08:32:38;102062.97;;;14.75;52.19
17649;BME280;8943;51.110;-4.158;2023-11-21T08:35:18;102055.66;;;14.77;52.41
17649;BME280;8943;51.110;-4.158;2023-11-21T08:37:48;102073.47;;;14.78;52.18
17649;BME280;8943;51.110;-4.158;2023-11-21T08:40:20;102083.03;;;14.82;51.71
17649;BME280;8943;51.110;-4.158;2023-11-21T08:42:48;102068.53;;;14.84;51.53
17649;BME280;8943;51.110;-4.158;2023-11-21T08:45:18;102070.25;;;14.85;51.64
17649;BME280;8943;51.110;-4.158;2023-11-21T08:47:49;102077.34;;;14.86;51.55
17649;BME280;8943;51.110;-4.158;2023-11-21T08:50:22;102083.34;;;14.90;51.10
17649;BME280;8943;51.110;-4.158;2023-11-21T08:53:08;102074.53;;;14.88;51.81
17649;BME280;8943;51.110;-4.158;2023-11-21T08:55:51;102088.91;;;14.87;51.27
17649;BME280;8943;51.110;-4.158;2023-11-21T08:58:22;102107.72;;;14.87;51.27
17649;BME280;8943;51.110;-4.158;2023-11-21T09:00:51;102127.34;;;14.87;51.57
17649;BME280;8943;51.110;-4.158;2023-11-21T09:03:22;102138.44;;;14.96;51.53
17649;BME280;8943;51.110;-4.158;2023-11-21T09:05:52;102148.72;;;15.02;51.55
17649;BME280;8943;51.110;-4.158;2023-11-21T09:08:24;102142.59;;;15.12;51.32
17649;BME280;8943;51.110;-4.158;2023-11-21T09:10:59;102160.88;;;15.20;51.59
17649;BME280;8943;51.110;-4.158;2023-11-21T09:13:28;102165.72;;;15.28;51.72
17649;BME280;8943;51.110;-4.158;2023-11-21T09:15:57;102167.53;;;15.40;52.00
17649;BME280;8943;51.110;-4.158;2023-11-21T09:18:32;102166.66;;;15.52;51.11
17649;BME280;8943;51.110;-4.158;2023-11-21T09:21:02;102152.03;;;15.56;50.45
17649;BME280;8943;51.110;-4.158;2023-11-21T09:23:32;102165.44;;;15.56;50.68
17649;BME280;8943;51.110;-4.158;2023-11-21T09:26:00;102159.56;;;15.51;50.40
17649;BME280;8943;51.110;-4.158;2023-11-21T09:28:30;102152.66;;;15.60;50.27
17649;BME280;8943;51.110;-4.158;2023-11-21T09:31:01;102164.28;;;15.60;50.31
17649;BME280;8943;51.110;-4.158;2023-11-21T09:33:44;102171.94;;;15.66;49.83
17649;BME280;8943;51.110;-4.158;2023-11-21T09:36:15;102167.09;;;15.72;50.27
17649;BME280;8943;51.110;-4.158;2023-11-21T09:38:44;102174.72;;;15.78;50.03
17649;BME280;8943;51.110;-4.158;2023-11-21T09:41:21;102177.69;;;15.86;50.60
17649;BME280;8943;51.110;-4.158;2023-11-21T09:44:09;102157.97;;;15.98;50.38
17649;BME280;8943;51.110;-4.158;2023-11-21T09:46:41;102158.50;;;16.03;50.44
17649;BME280;8943;51.110;-4.158;2023-11-21T09:49:13;102170.28;;;16.13;49.89
17649;BME280;8943;51.110;-4.158;2023-11-21T09:51:46;102160.31;;;16.15;49.17
17649;BME280;8943;51.110;-4.158;2023-11-21T09:54:16;102169.31;;;16.14;49.37
17649;BME280;8943;51.110;-4.158;2023-11-21T09:56:46;102181.50;;;16.07;47.54
17649;BME280;8943;51.110;-4.158;2023-11-21T09:59:16;102185.00;;;15.96;48.00
17649;BME280;8943;51.110;-4.158;2023-11-21T10:01:46;102185.53;;;15.89;48.19
17649;BME280;8943;51.110;-4.158;2023-11-21T10:04:16;102181.34;;;15.85;48.36
17649;BME280;8943;51.110;-4.158;2023-11-21T10:06:48;102183.41;;;15.81;47.97
17649;BME280;8943;51.110;-4.158;2023-11-21T10:09:21;102183.00;;;15.75;48.12
17649;BME280;8943;51.110;-4.158;2023-11-21T10:11:50;102188.81;;;15.68;48.28
17649;BME280;8943;51.110;-4.158;2023-11-21T10:14:24;102199.13;;;15.62;48.29
17649;BME280;8943;51.110;-4.158;2023-11-21T10:16:58;102203.19;;;15.55;48.62
17649;BME280;8943;51.110;-4.158;2023-11-21T10:19:30;102209.41;;;15.55;48.67
17649;BME280;8943;51.110;-4.158;2023-11-21T10:22:04;102210.50;;;15.53;48.38
17649;BME280;8943;51.110;-4.158;2023-11-21T10:24:36;102208.34;;;15.45;48.05
17649;BME280;8943;51.110;-4.158;2023-11-21T10:27:19;102220.81;;;15.46;48.40
17649;BME280;8943;51.110;-4.158;2023-11-21T10:29:52;102217.19;;;15.47;48.76
17649;BME280;8943;51.110;-4.158;2023-11-21T10:32:28;102225.13;;;15.49;48.49
17649;BME280;8943;51.110;-4.158;2023-11-21T10:35:01;102240.47;;;15.46;48.77
17649;BME280;8943;51.110;-4.158;2023-11-21T10:37:44;102241.13;;;15.50;49.03
17649;BME280;8943;51.110;-4.158;2023-11-21T10:40:15;102245.66;;;15.62;49.12
17649;BME280;8943;51.110;-4.158;2023-11-21T10:42:43;102249.97;;;15.65;48.85
17649;BME280;8943;51.110;-4.158;2023-11-21T10:45:12;102249.53;;;15.71;49.25
17649;BME280;8943;51.110;-4.158;2023-11-21T10:47:42;102256.00;;;15.81;49.37
17649;BME280;8943;51.110;-4.158;2023-11-21T10:50:21;102264.03;;;15.94;48.90
17649;BME280;8943;51.110;-4.158;2023-11-21T10:52:52;102259.94;;;16.01;48.32
17649;BME280;8943;51.110;-4.158;2023-11-21T10:55:21;102240.78;;;16.06;48.53
17649;BME280;8943;51.110;-4.158;2023-11-21T10:57:53;102243.31;;;16.20;48.45
17649;BME280;8943;51.110;-4.158;2023-11-21T11:00:22;102237.78;;;16.34;48.44
17649;BME280;8943;51.110;-4.158;2023-11-21T11:02:53;102250.47;;;16.45;47.77
17649;BME280;8943;51.110;-4.158;2023-11-21T11:05:26;102236.03;;;16.46;47.95
17649;BME280;8943;51.110;-4.158;2023-11-21T11:07:59;102240.09;;;16.52;47.53
17649;BME280;8943;51.110;-4.158;2023-11-21T11:10:31;102231.16;;;16.51;47.15
17649;BME280;8943;51.110;-4.158;2023-11-21T11:13:02;102232.88;;;16.52;46.71
17649;BME280;8943;51.110;-4.158;2023-11-21T11:15:31;102226.41;;;16.55;47.10
17649;BME280;8943;51.110;-4.158;2023-11-21T11:18:25;102222.09;;;16.52;47.45
17649;BME280;8943;51.110;-4.158;2023-11-21T11:20:59;102224.69;;;16.54;46.95
17649;BME280;8943;51.110;-4.158;2023-11-21T11:23:56;102232.66;;;16.55;46.73
17649;BME280;8943;51.110;-4.158;2023-11-21T11:26:39;102234.50;;;16.55;46.67
17649;BME280;8943;51.110;-4.158;2023-11-21T11:29:17;102238.91;;;16.56;46.78
17649;BME280;8943;51.110;-4.158;2023-11-21T11:32:03;102221.41;;;16.61;46.46
17649;BME280;8943;51.110;-4.158;2023-11-21T11:34:42;102218.00;;;16.59;46.16
17649;BME280;8943;51.110;-4.158;2023-11-21T11:37:19;102219.47;;;16.63;46.16
17649;BME280;8943;51.110;-4.158;2023-11-21T11:39:49;102219.94;;;16.57;45.99
17649;BME280;8943;51.110;-4.158;2023-11-21T11:42:21;102234.72;;;16.52;45.77
17649;BME280;8943;51.110;-4.158;2023-11-21T11:47:28;102250.53;;;16.43;46.32
17649;BME280;8943;51.110;-4.158;2023-11-21T11:50:04;102245.81;;;16.47;46.50
17649;BME280;8943;51.110;-4.158;2023-11-21T11:52:42;102249.00;;;16.52;46.87
17649;BME280;8943;51.110;-4.158;2023-11-21T11:55:12;102239.28;;;16.62;46.53
17649;BME280;8943;51.110;-4.158;2023-11-21T12:00:40;102251.19;;;16.84;46.06
17649;BME280;8943;51.110;-4.158;2023-11-21T12:03:46;102259.47;;;16.81;45.98
17649;BME280;8943;51.110;-4.158;2023-11-21T12:06:33;102268.75;;;16.77;45.69
17649;BME280;8943;51.110;-4.158;2023-11-21T12:09:05;102264.56;;;16.72;46.02
17649;BME280;8943;51.110;-4.158;2023-11-21T12:11:33;102257.34;;;16.73;45.97
17649;BME280;8943;51.110;-4.158;2023-11-21T12:14:03;102275.13;;;16.76;46.04
17649;BME280;8943;51.110;-4.158;2023-11-21T12:16:35;102271.22;;;16.80;46.15
17649;BME280;8943;51.110;-4.158;2023-11-21T12:19:05;102259.47;;;16.81;46.11
17649;BME280;8943;51.110;-4.158;2023-11-21T12:21:33;102268.75;;;16.77;46.36
17649;BME280;8943;51.110;-4.158;2023-11-21T12:24:10;102272.16;;;16.79;46.70
17649;BME280;8943;51.110;-4.158;2023-11-21T12:26:53;102278.31;;;16.81;46.57
17649;BME280;8943;51.110;-4.158;2023-11-21T12:29:22;102278.53;;;16.78;47.02
17649;BME280;8943;51.110;-4.158;2023-11-21T12:31:50;102281.22;;;16.78;46.96
17649;BME280;8943;51.110;-4.158;2023-11-21T12:34:50;102276.69;;;16.78;46.86
17649;BME280;8943;51.110;-4.158;2023-11-21T12:37:28;102279.72;;;16.73;46.48
17649;BME280;8943;51.110;-4.158;2023-11-21T12:39:58;102284.38;;;16.71;46.48
17649;BME280;8943;51.110;-4.158;2023-11-21T12:42:26;102279.94;;;16.70;46.53
17649;BME280;8943;51.110;-4.158;2023-11-21T12:47:39;102289.94;;;16.68;46.69
17649;BME280;8943;51.110;-4.158;2023-11-21T12:50:11;102298.03;;;16.68;46.34
17649;BME280;8943;51.110;-4.158;2023-11-21T12:52:42;102301.69;;;16.67;46.15
17649;BME280;8943;51.110;-4.158;2023-11-21T12:55:25;102317.31;;;16.62;46.49
17649;BME280;8943;51.110;-4.158;2023-11-21T12:57:55;102324.94;;;16.68;46.78
17649;BME280;8943;51.110;-4.158;2023-11-21T13:00:34;102319.81;;;16.65;46.65
17649;BME280;8943;51.110;-4.158;2023-11-21T13:03:07;102328.41;;;16.70;46.66
17649;BME280;8943;51.110;-4.158;2023-11-21T13:05:41;102326.69;;;16.69;47.01
17649;BME280;8943;51.110;-4.158;2023-11-21T13:08:26;102338.88;;;16.75;46.96
17649;BME280;8943;51.110;-4.158;2023-11-21T13:10:59;102329.38;;;16.69;46.78
17649;BME280;8943;51.110;-4.158;2023-11-21T13:13:30;102329.25;;;16.71;46.92
17649;BME280;8943;51.110;-4.158;2023-11-21T13:16:06;102324.53;;;16.75;46.46
17649;BME280;8943;51.110;-4.158;2023-11-21T13:18:38;102327.50;;;16.83;46.95
17649;BME280;8943;51.110;-4.158;2023-11-21T13:21:09;102328.03;;;16.88;47.05
17649;BME280;8943;51.110;-4.158;2023-11-21T13:23:41;102330.88;;;16.97;46.67
17649;BME280;8943;51.110;-4.158;2023-11-21T13:26:11;102326.81;;;16.92;46.41
17649;BME280;8943;51.110;-4.158;2023-11-21T13:28:42;102333.84;;;16.94;46.62
17649;BME280;8943;51.110;-4.158;2023-11-21T13:31:14;102331.34;;;16.91;46.58
17649;BME280;8943;51.110;-4.158;2023-11-21T13:34:02;102337.84;;;16.89;46.06
17649;BME280;8943;51.110;-4.158;2023-11-21T13:36:35;102346.47;;;16.81;46.27
17649;BME280;8943;51.110;-4.158;2023-11-21T13:39:03;102341.00;;;16.70;46.11
17649;BME280;8943;51.110;-4.158;2023-11-21T13:41:37;102337.03;;;16.63;46.19
17649;BME280;8943;51.110;-4.158;2023-11-21T13:44:07;102336.69;;;16.67;46.66
17649;BME280;8943;51.110;-4.158;2023-11-21T13:46:43;102340.69;;;16.62;46.40
17649;BME280;8943;51.110;-4.158;2023-11-21T13:49:13;102352.56;;;16.59;46.23
17649;BME280;8943;51.110;-4.158;2023-11-21T13:51:48;102351.06;;;16.55;46.29
17649;BME280;8943;51.110;-4.158;2023-11-21T13:54:38;102353.22;;;16.50;46.70
17649;BME280;8943;51.110;-4.158;2023-11-21T13:57:08;102353.44;;;16.47;46.67
17649;BME280;8943;51.110;-4.158;2023-11-21T13:59:37;102344.38;;;16.48;46.51
17649;BME280;8943;51.110;-4.158;2023-11-21T14:02:06;102343.00;;;16.42;46.21
17649;BME280;8943;51.110;-4.158;2023-11-21T14:04:45;102345.03;;;16.39;46.50
17649;BME280;8943;51.110;-4.158;2023-11-21T14:07:23;102343.78;;;16.32;46.87
17649;BME280;8943;51.110;-4.158;2023-11-21T14:10:12;102367.22;;;16.30;46.81
17649;BME280;8943;51.110;-4.158;2023-11-21T14:12:50;102374.75;;;16.25;47.06
17649;BME280;8943;51.110;-4.158;2023-11-21T14:15:19;102381.03;;;16.25;47.28
17649;BME280;8943;51.110;-4.158;2023-11-21T14:17:48;102388.97;;;16.27;47.41
17649;BME280;8943;51.110;-4.158;2023-11-21T14:20:17;102390.91;;;16.25;47.36
17649;BME280;8943;51.110;-4.158;2023-11-21T14:22:48;102391.56;;;16.28;47.31
17649;BME280;8943;51.110;-4.158;2023-11-21T14:25:22;102388.00;;;16.28;47.11
17649;BME280;8943;51.110;-4.158;2023-11-21T14:28:04;102397.50;;;16.20;47.41
17649;BME280;8943;51.110;-4.158;2023-11-21T14:30:33;102396.53;;;16.21;47.69
17649;BME280;8943;51.110;-4.158;2023-11-21T14:33:03;102403.63;;;16.22;47.46
17649;BME280;8943;51.110;-4.158;2023-11-21T14:35:32;102395.66;;;16.21;47.42
17649;BME280;8943;51.110;-4.158;2023-11-21T14:38:02;102397.19;;;16.25;47.24
17649;BME280;8943;51.110;-4.158;2023-11-21T14:40:32;102390.59;;;16.16;47.09
17649;BME280;8943;51.110;-4.158;2023-11-21T14:43:09;102392.53;;;16.14;47.25
17649;BME280;8943;51.110;-4.158;2023-11-21T14:45:41;102403.19;;;16.16;47.19
17649;BME280;8943;51.110;-4.158;2023-11-21T14:48:12;102399.84;;;16.12;47.40
17649;BME280;8943;51.110;-4.158;2023-11-21T14:50:43;102397.28;;;16.11;47.38
17649;BME280;8943;51.110;-4.158;2023-11-21T14:53:37;102403.53;;;16.11;47.36
17649;BME280;8943;51.110;-4.158;2023-11-21T14:56:21;102404.69;;;16.07;47.60
17649;BME280;8943;51.110;-4.158;2023-11-21T14:58:55;102398.34;;;16.08;47.87
17649;BME280;8943;51.110;-4.158;2023-11-21T15:01:23;102395.44;;;16.11;47.58
17649;BME280;8943;51.110;-4.158;2023-11-21T15:04:14;102401.03;;;16.08;47.37
17649;BME280;8943;51.110;-4.158;2023-11-21T15:06:53;102413.94;;;16.03;47.49
17649;BME280;8943;51.110;-4.158;2023-11-21T15:09:24;102405.88;;;16.03;47.65
17649;BME280;8943;51.110;-4.158;2023-11-21T15:12:04;102399.84;;;16.00;47.70
17649;BME280;8943;51.110;-4.158;2023-11-21T15:14:54;102409.09;;;15.95;47.73
17649;BME280;8943;51.110;-4.158;2023-11-21T15:17:30;102420.94;;;15.93;47.86
17649;BME280;8943;51.110;-4.158;2023-11-21T15:20:11;102429.84;;;15.93;47.70
17649;BME280;8943;51.110;-4.158;2023-11-21T15:22:53;102425.31;;;15.94;47.79
17649;BME280;8943;51.110;-4.158;2023-11-21T15:25:25;102447.63;;;15.96;47.89
17649;BME280;8943;51.110;-4.158;2023-11-21T15:27:54;102449.41;;;15.95;47.96
17649;BME280;8943;51.110;-4.158;2023-11-21T15:30:31;102454.72;;;15.97;48.06
17649;BME280;8943;51.110;-4.158;2023-11-21T15:33:03;102459.84;;;16.00;48.10
17649;BME280;8943;51.110;-4.158;2023-11-21T15:35:32;102462.53;;;16.00;48.13
17649;BME280;8943;51.110;-4.158;2023-11-21T15:38:05;102474.19;;;16.01;47.95
17649;BME280;8943;51.110;-4.158;2023-11-21T15:40:35;102475.03;;;16.01;48.12
17649;BME280;8943;51.110;-4.158;2023-11-21T15:43:04;102475.25;;;15.98;48.15
17649;BME280;8943;51.110;-4.158;2023-11-21T15:45:38;102484.28;;;15.97;48.16
17649;BME280;8943;51.110;-4.158;2023-11-21T15:48:06;102480.63;;;15.98;48.23
17649;BME280;8943;51.110;-4.158;2023-11-21T15:50:36;102479.88;;;15.96;48.35
17649;BME280;8943;51.110;-4.158;2023-11-21T15:53:08;102478.13;;;15.95;48.41
17649;BME280;8943;51.110;-4.158;2023-11-21T15:55:41;102474.50;;;15.96;48.37
17649;BME280;8943;51.110;-4.158;2023-11-21T15:58:09;102477.38;;;15.93;48.41
17649;BME280;8943;51.110;-4.158;2023-11-21T16:00:40;102479.31;;;15.91;48.59
17649;BME280;8943;51.110;-4.158;2023-11-21T16:03:09;102489.19;;;15.90;48.61
17649;BME280;8943;51.110;-4.158;2023-11-21T16:05:41;102482.97;;;15.90;48.45
17649;BME280;8943;51.110;-4.158;2023-11-21T16:08:11;102485.75;;;15.88;48.55
17649;BME280;8943;51.110;-4.158;2023-11-21T16:10:40;102488.44;;;15.88;48.68
17649;BME280;8943;51.110;-4.158;2023-11-21T16:13:11;102492.53;;;15.94;48.65
17649;BME280;8943;51.110;-4.158;2023-11-21T16:15:46;102498.78;;;15.94;48.76
17649;BME280;8943;51.110;-4.158;2023-11-21T16:18:30;102500.41;;;15.97;48.67
17649;BME280;8943;51.110;-4.158;2023-11-21T16:20:59;102503.09;;;15.97;48.86
17649;BME280;8943;51.110;-4.158;2023-11-21T16:23:39;102496.19;;;15.93;48.57
17649;BME280;8943;51.110;-4.158;2023-11-21T16:26:08;102502.44;;;15.93;48.73
17649;BME280;8943;51.110;-4.158;2023-11-21T16:28:41;102499.75;;;15.93;48.56
17649;BME280;8943;51.110;-4.158;2023-11-21T16:31:13;102505.25;;;15.92;48.72
17649;BME280;8943;51.110;-4.158;2023-11-21T16:33:49;102506.66;;;15.98;48.38
17649;BME280;8943;51.110;-4.158;2023-11-21T16:36:19;102511.16;;;15.97;48.66
17649;BME280;8943;51.110;-4.158;2023-11-21T16:38:47;102501.38;;;15.96;48.74
17649;BME280;8943;51.110;-4.158;2023-11-21T16:41:18;102509.53;;;15.94;48.61
17649;BME280;8943;51.110;-4.158;2023-11-21T16:43:47;102509.53;;;15.94;48.74
17649;BME280;8943;51.110;-4.158;2023-11-21T16:46:20;102517.72;;;15.93;48.57
17649;BME280;8943;51.110;-4.158;2023-11-21T16:48:52;102524.25;;;15.89;48.68
17649;BME280;8943;51.110;-4.158;2023-11-21T16:51:21;102541.25;;;15.89;48.65
17649;BME280;8943;51.110;-4.158;2023-11-21T16:53:49;102531.78;;;15.84;48.70
17649;BME280;8943;51.110;-4.158;2023-11-21T16:58:53;102545.63;;;15.78;48.69
17649;BME280;8943;51.110;-4.158;2023-11-21T17:01:25;102537.75;;;15.75;48.66
17649;BME280;8943;51.110;-4.158;2023-11-21T17:03:56;102552.28;;;15.72;48.76
17649;BME280;8943;51.110;-4.158;2023-11-21T17:06:28;102561.38;;;15.69;48.58
17649;BME280;8943;51.110;-4.158;2023-11-21T17:08:58;102562.34;;;15.68;48.81
17649;BME280;8943;51.110;-4.158;2023-11-21T17:11:31;102571.56;;;15.64;48.61
17649;BME280;8943;51.110;-4.158;2023-11-21T17:14:01;102591.16;;;15.66;48.67
17649;BME280;8943;51.110;-4.158;2023-11-21T17:16:42;102588.66;;;15.63;48.61
17649;BME280;8943;51.110;-4.158;2023-11-21T17:19:14;102606.50;;;15.64;48.75
17649;BME280;8943;51.110;-4.158;2023-11-21T17:21:45;102614.56;;;15.64;48.59
17649;BME280;8943;51.110;-4.158;2023-11-21T17:24:21;102630.50;;;15.67;48.76
17649;BME280;8943;51.110;-4.158;2023-11-21T17:26:49;102631.47;;;15.66;48.84
17649;BME280;8943;51.110;-4.158;2023-11-21T17:29:18;102623.41;;;15.66;48.75
17649;BME280;8943;51.110;-4.158;2023-11-21T17:31:50;102622.22;;;15.70;48.78
17649;BME280;8943;51.110;-4.158;2023-11-21T17:34:22;102615.69;;;15.75;48.89
17649;BME280;8943;51.110;-4.158;2023-11-21T17:37:18;102618.28;;;15.76;48.92
17649;BME280;8943;51.110;-4.158;2023-11-21T17:39:48;102619.91;;;15.79;48.78